Time;durP1;ratioP1;P1;durP2;ratioP2;P2;SDS_P1;SDS_P2;PMS_P1;PMS_P2;Temp;Humidity;BMP_temperature;BMP_pressure;BME280_temperature;BME280_humidity;BME280_pressure;Samples;Min_cycle;Max_cycle;Signal;HPM_P1;HPM_P2
2023/10/30 00:00:53;;;;;;;0.40;0.30;;;10.50;99.90;;;;;;6159498;23;20028;-84
2023/10/30 00:03:20;;;;;;;0.93;0.30;;;10.50;99.90;;;;;;6160540;23;20032;-78
2023/10/30 00:05:48;;;;;;;1.00;0.35;;;10.60;99.90;;;;;;6186433;23;20025;-83
2023/10/30 00:08:16;;;;;;;0.88;0.20;;;10.60;99.90;;;;;;6183018;23;20025;-79
2023/10/30 00:10:43;;;;;;;0.30;0.20;;;10.60;99.90;;;;;;6181317;23;20016;-80
2023/10/30 00:13:10;;;;;;;0.90;0.22;;;10.50;99.90;;;;;;6183205;23;20027;-80
2023/10/30 00:15:37;;;;;;;0.68;0.50;;;10.60;99.90;;;;;;6184365;23;20028;-81
2023/10/30 00:18:05;;;;;;;0.82;0.40;;;10.60;99.90;;;;;;6160233;23;20028;-79
2023/10/30 00:20:35;;;;;;;0.90;0.40;;;10.50;96.10;;;;;;6209861;23;20378;-79
2023/10/30 00:23:02;;;;;;;1.13;0.30;;;10.50;99.90;;;;;;6158704;23;20028;-79
2023/10/30 00:25:29;;;;;;;0.88;0.40;;;10.60;99.90;;;;;;6179234;23;20020;-79
2023/10/30 00:27:59;;;;;;;1.55;0.60;;;10.60;94.10;;;;;;6203923;23;20096;-83
2023/10/30 00:30:27;;;;;;;0.52;0.50;;;10.60;37.90;;;;;;6205749;23;20484;-80
2023/10/30 00:32:55;;;;;;;1.13;0.40;;;10.60;1.00;;;;;;6208271;23;20062;-79
2023/10/30 00:35:24;;;;;;;0.75;0.30;;;10.50;1.00;;;;;;6182603;23;20028;-81
2023/10/30 00:37:51;;;;;;;1.08;0.73;;;10.50;1.00;;;;;;6182813;23;20032;-81
2023/10/30 00:40:19;;;;;;;0.77;0.40;;;10.50;1.00;;;;;;6178506;23;20573;-79
2023/10/30 00:42:46;;;;;;;0.73;0.30;;;10.40;1.00;;;;;;6182743;23;20374;-81
2023/10/30 00:45:13;;;;;;;0.43;0.25;;;10.40;1.00;;;;;;6159575;23;20024;-79
2023/10/30 00:47:40;;;;;;;0.50;0.40;;;10.40;99.90;;;;;;6183793;23;20075;-80
2023/10/30 00:50:08;;;;;;;0.40;0.40;;;10.40;99.90;;;;;;6134885;23;20020;-84
2023/10/30 00:52:35;;;;;;;0.80;0.45;;;10.40;99.90;;;;;;6135257;23;20020;-79
2023/10/30 00:55:02;;;;;;;0.95;0.40;;;10.40;99.90;;;;;;6134363;23;20107;-79
2023/10/30 00:57:29;;;;;;;1.98;0.50;;;10.50;99.90;;;;;;6182958;23;20079;-82
2023/10/30 00:59:56;;;;;;;1.27;0.30;;;10.50;99.90;;;;;;6184375;23;20048;-79
2023/10/30 01:02:23;;;;;;;0.43;0.30;;;10.60;99.90;;;;;;6155585;23;20583;-79
2023/10/30 01:04:50;;;;;;;1.05;0.50;;;10.60;99.90;;;;;;6130724;23;20016;-79
2023/10/30 01:07:17;;;;;;;1.00;0.40;;;10.60;99.90;;;;;;6155836;23;20020;-80
2023/10/30 01:09:44;;;;;;;1.02;0.55;;;10.60;99.90;;;;;;6158099;23;20013;-78
2023/10/30 01:12:11;;;;;;;0.45;0.43;;;10.50;99.90;;;;;;6208724;23;20028;-85
2023/10/30 01:14:38;;;;;;;1.75;0.65;;;10.50;99.90;;;;;;6135218;23;20024;-79
2023/10/30 01:17:05;;;;;;;0.60;0.40;;;10.50;99.90;;;;;;6133722;23;20083;-78
2023/10/30 01:19:32;;;;;;;1.00;0.50;;;10.50;99.90;;;;;;6210435;23;20024;-79
2023/10/30 01:21:59;;;;;;;0.20;0.20;;;10.50;99.90;;;;;;6159547;23;20024;-86
2023/10/30 01:24:26;;;;;;;0.90;0.50;;;10.50;99.90;;;;;;6159592;23;20020;-82
2023/10/30 01:26:53;;;;;;;0.73;0.40;;;10.50;99.90;;;;;;6157424;23;20470;-78
2023/10/30 01:29:20;;;;;;;0.68;0.40;;;10.50;99.90;;;;;;6181176;23;20024;-79
2023/10/30 01:31:47;;;;;;;1.20;0.30;;;10.50;99.90;;;;;;6158799;23;20079;-80
2023/10/30 01:34:14;;;;;;;0.88;0.50;;;10.50;99.90;;;;;;6183492;23;20021;-79
2023/10/30 01:36:41;;;;;;;1.20;0.55;;;10.50;99.90;;;;;;6157843;23;20091;-79
2023/10/30 01:39:08;;;;;;;1.15;0.50;;;10.50;99.90;;;;;;6183145;23;20382;-80
2023/10/30 01:41:35;;;;;;;2.55;0.88;;;10.60;99.90;;;;;;6156436;23;20256;-80
2023/10/30 01:44:03;;;;;;;1.02;0.45;;;10.60;99.90;;;;;;6193541;23;20017;-79
2023/10/30 01:46:31;;;;;;;0.50;0.32;;;10.60;99.90;;;;;;6210853;23;20055;-80
2023/10/30 01:48:58;;;;;;;1.02;0.50;;;10.60;99.90;;;;;;6182796;23;20367;-78
2023/10/30 01:51:25;;;;;;;1.80;0.50;;;10.60;99.90;;;;;;6206684;23;20051;-79
2023/10/30 01:53:52;;;;;;;0.32;0.30;;;10.70;99.90;;;;;;6158757;23;20276;-79
2023/10/30 01:56:19;;;;;;;2.08;0.50;;;10.70;99.90;;;;;;6187906;23;20028;-78
2023/10/30 01:58:45;;;;;;;0.57;0.40;;;10.60;99.90;;;;;;6181471;23;20039;-79
2023/10/30 02:01:12;;;;;;;0.77;0.30;;;10.60;99.90;;;;;;6158577;23;20020;-79
2023/10/30 02:03:39;;;;;;;0.82;0.40;;;10.60;99.90;;;;;;6182281;23;20115;-80
2023/10/30 02:06:07;;;;;;;1.70;0.40;;;10.60;99.90;;;;;;6206981;23;20505;-79
2023/10/30 02:08:35;;;;;;;1.50;0.50;;;10.60;99.90;;;;;;6182740;23;20029;-79
2023/10/30 02:11:02;;;;;;;0.38;0.22;;;10.60;99.90;;;;;;6208519;23;20529;-80
2023/10/30 02:13:29;;;;;;;1.58;0.32;;;10.50;99.90;;;;;;6207769;23;20413;-79
2023/10/30 02:15:57;;;;;;;1.45;0.40;;;10.60;99.90;;;;;;6208151;23;20074;-78
2023/10/30 02:18:24;;;;;;;1.70;0.32;;;10.60;99.90;;;;;;6182518;23;20025;-80
2023/10/30 02:20:51;;;;;;;1.00;0.40;;;10.60;99.90;;;;;;6183280;23;20035;-78
2023/10/30 02:23:18;;;;;;;0.45;0.40;;;10.50;99.90;;;;;;6158260;23;20523;-79
2023/10/30 02:25:45;;;;;;;1.15;0.50;;;10.50;99.90;;;;;;6157639;23;20029;-80
2023/10/30 02:28:12;;;;;;;2.40;0.47;;;10.50;99.90;;;;;;6181199;23;20067;-79
2023/10/30 04:52:53;;;;;;;;;;;;;;;;;;;;;
2023/10/30 05:08:21;;;;;;;;;;;;;;;;;;;;;
2023/10/30 05:20:16;;;;;;;0.50;0.28;;;10.00;99.90;;;;;;5721688;25;20016;-93
2023/10/30 06:09:39;;;;;;;0.45;0.28;;;10.20;99.90;;;;;;6234795;22;1415785;-78
2023/10/30 06:12:06;;;;;;;0.40;0.20;;;10.10;99.90;;;;;;6241680;23;20625;-79
2023/10/30 06:14:33;;;;;;;0.68;0.40;;;10.20;99.90;;;;;;6216569;23;20019;-79
2023/10/30 06:17:02;;;;;;;0.60;0.45;;;10.20;99.90;;;;;;6190758;23;20027;-78
2023/10/30 06:19:29;;;;;;;1.67;0.40;;;10.20;99.90;;;;;;6191658;23;20479;-79
2023/10/30 06:21:56;;;;;;;0.73;0.43;;;10.20;99.90;;;;;;6215966;23;20405;-79
2023/10/30 06:24:24;;;;;;;0.85;0.30;;;10.30;99.90;;;;;;6190741;23;20020;-79
2023/10/30 06:26:51;;;;;;;0.40;0.30;;;10.20;99.90;;;;;;6190696;23;20059;-80
2023/10/30 06:29:17;;;;;;;0.32;0.32;;;10.20;99.90;;;;;;6190208;23;20023;-79
2023/10/30 06:31:44;;;;;;;0.30;0.30;;;10.30;99.90;;;;;;6242344;23;20027;-80
2023/10/30 06:34:13;;;;;;;0.35;0.20;;;10.20;99.90;;;;;;6188107;23;20028;-78
2023/10/30 06:36:40;;;;;;;0.60;0.30;;;10.30;99.90;;;;;;6213345;23;20031;-79
2023/10/30 06:39:09;;;;;;;0.30;0.20;;;10.30;99.90;;;;;;6186692;23;20020;-80
2023/10/30 06:41:36;;;;;;;1.27;0.77;;;10.30;99.90;;;;;;6208101;23;20028;-81
2023/10/30 06:44:04;;;;;;;0.30;0.28;;;10.30;99.90;;;;;;6183126;23;20020;-84
2023/10/30 06:46:32;;;;;;;0.30;0.30;;;10.30;99.90;;;;;;6184257;23;20528;-83
2023/10/30 06:48:59;;;;;;;0.20;0.20;;;10.30;99.90;;;;;;6208503;23;20042;-80
2023/10/30 06:51:26;;;;;;;0.30;0.30;;;10.40;99.90;;;;;;6181343;23;20652;-80
2023/10/30 06:53:53;;;;;;;0.77;0.50;;;10.40;99.90;;;;;;6204746;23;20039;-78
2023/10/30 06:56:20;;;;;;;0.43;0.30;;;10.40;99.90;;;;;;6181072;23;20024;-79
2023/10/30 06:58:47;;;;;;;0.40;0.40;;;10.40;99.90;;;;;;6176645;23;20020;-81
2023/10/30 07:01:14;;;;;;;0.93;0.40;;;10.40;99.90;;;;;;6203159;23;20404;-79
2023/10/30 07:03:41;;;;;;;0.82;0.50;;;10.40;97.10;;;;;;6187264;23;20111;-79
2023/10/30 07:06:10;;;;;;;0.43;0.40;;;10.50;98.90;;;;;;6150645;23;20023;-81
2023/10/30 07:08:38;;;;;;;0.60;0.40;;;10.50;70.60;;;;;;6150852;23;20026;-79
2023/10/30 07:11:05;;;;;;;0.43;0.20;;;10.60;76.90;;;;;;6148695;23;20029;-80
2023/10/30 07:13:34;;;;;;;1.23;0.40;;;10.60;12.60;;;;;;6150398;23;20078;-80
2023/10/30 07:16:01;;;;;;;1.52;0.30;;;10.60;1.00;;;;;;6151299;23;20028;-79
2023/10/30 07:18:29;;;;;;;0.40;0.30;;;10.60;1.00;;;;;;6149217;23;20027;-82
2023/10/30 07:20:56;;;;;;;0.75;0.30;;;10.70;1.00;;;;;;6149569;23;20028;-80
2023/10/30 07:23:23;;;;;;;0.20;0.20;;;10.70;1.00;;;;;;6171989;23;20016;-79
2023/10/30 07:25:50;;;;;;;0.52;0.30;;;10.70;1.00;;;;;;6148147;23;20074;-80
2023/10/30 07:28:18;;;;;;;0.20;0.20;;;10.80;1.00;;;;;;6174098;23;20478;-83
2023/10/30 07:30:45;;;;;;;0.20;0.20;;;10.80;1.00;;;;;;6150380;23;20532;-79
2023/10/30 07:33:12;;;;;;;0.22;0.22;;;10.80;1.00;;;;;;6149939;23;20099;-81
2023/10/30 07:35:43;;;;;;;0.20;0.20;;;10.90;1.00;;;;;;6175866;23;20024;-86
2023/10/30 07:38:10;;;;;;;0.57;0.30;;;10.90;1.00;;;;;;6151108;23;20024;-81
2023/10/30 07:40:37;;;;;;;0.40;0.20;;;11.00;1.00;;;;;;6147748;23;20035;-79
2023/10/30 07:43:04;;;;;;;0.50;0.22;;;11.00;1.00;;;;;;6149374;23;20020;-81
2023/10/30 07:45:32;;;;;;;0.15;0.15;;;11.00;1.00;;;;;;6150754;23;20098;-78
2023/10/30 07:47:59;;;;;;;0.20;0.20;;;11.10;1.00;;;;;;6148612;23;20440;-83
2023/10/30 07:50:26;;;;;;;0.20;0.20;;;11.10;1.00;;;;;;6150745;23;20017;-81
2023/10/30 07:52:54;;;;;;;0.20;0.20;;;11.20;1.00;;;;;;6149153;23;20032;-80
2023/10/30 07:55:22;;;;;;;0.20;0.20;;;11.20;1.00;;;;;;6150028;23;20023;-84
2023/10/30 07:57:49;;;;;;;0.30;0.30;;;11.20;99.90;;;;;;6151945;23;20024;-80
2023/10/30 08:00:17;;;;;;;0.20;0.20;;;11.30;99.90;;;;;;6150977;23;20019;-79
2023/10/30 08:02:46;;;;;;;0.20;0.20;;;11.30;99.90;;;;;;6151887;23;20020;-81
2023/10/30 08:05:16;;;;;;;0.30;0.30;;;11.40;99.90;;;;;;6151066;23;20044;-79
2023/10/30 08:07:47;;;;;;;0.20;0.20;;;11.40;99.90;;;;;;6152961;23;20461;-83
2023/10/30 08:10:14;;;;;;;0.20;0.20;;;11.50;99.90;;;;;;6150551;23;20509;-79
2023/10/30 08:12:41;;;;;;;0.20;0.20;;;11.50;99.90;;;;;;6150702;23;20031;-79
2023/10/30 08:15:09;;;;;;;0.40;0.30;;;11.60;99.90;;;;;;6149398;23;20024;-79
2023/10/30 08:17:37;;;;;;;0.52;0.35;;;11.70;99.90;;;;;;6150315;23;20020;-79
2023/10/30 08:20:04;;;;;;;0.57;0.40;;;11.80;99.90;;;;;;6149129;23;20067;-80
2023/10/30 08:22:32;;;;;;;0.63;0.22;;;11.90;99.90;;;;;;6148766;23;20028;-80
2023/10/30 08:24:59;;;;;;;0.32;0.32;;;11.90;99.90;;;;;;6175089;23;20021;-83
2023/10/30 08:27:27;;;;;;;0.38;0.38;;;11.90;84.20;;;;;;6151382;23;20028;-83
2023/10/30 08:29:54;;;;;;;0.30;0.30;;;12.00;1.00;;;;;;6151693;23;20016;-79
2023/10/30 08:32:22;;;;;;;0.25;0.20;;;12.00;1.00;;;;;;6149259;23;20485;-83
2023/10/30 08:34:49;;;;;;;0.35;0.30;;;12.00;1.00;;;;;;6151353;23;20013;-81
2023/10/30 08:37:20;;;;;;;0.43;0.30;;;12.00;99.90;;;;;;6154577;23;20481;-83
2023/10/30 08:39:47;;;;;;;0.40;0.40;;;12.00;51.40;;;;;;6151544;23;20462;-79
2023/10/30 08:42:14;;;;;;;1.00;0.30;;;12.00;99.90;;;;;;6172663;23;20682;-79
2023/10/30 08:44:41;;;;;;;0.55;0.25;;;12.00;99.90;;;;;;6149768;23;20039;-79
2023/10/30 08:47:08;;;;;;;0.65;0.40;;;12.00;99.90;;;;;;6173767;23;20075;-80
2023/10/30 08:49:35;;;;;;;0.60;0.30;;;11.90;99.90;;;;;;6150652;23;20027;-85
2023/10/30 08:52:04;;;;;;;0.63;0.40;;;11.90;99.90;;;;;;6150263;23;20058;-84
2023/10/30 08:54:31;;;;;;;0.30;0.30;;;11.80;1.00;;;;;;6178011;23;20027;-83
2023/10/30 08:56:58;;;;;;;0.20;0.20;;;11.80;1.00;;;;;;6149743;23;20016;-84
2023/10/30 08:59:42;;;;;;;0.20;0.20;;;11.70;1.00;;;;;;6157151;23;20023;-80
2023/10/30 09:02:10;;;;;;;0.55;0.30;;;11.70;99.90;;;;;;6149925;23;20027;-82
2023/10/30 09:04:39;;;;;;;0.70;0.70;;;11.70;99.90;;;;;;6149037;23;20091;-82
2023/10/30 09:07:06;;;;;;;0.43;0.20;;;11.60;99.90;;;;;;6148577;23;20020;-81
2023/10/30 09:09:34;;;;;;;0.50;0.30;;;11.60;1.00;;;;;;6149847;23;20026;-81
2023/10/30 09:12:01;;;;;;;0.20;0.20;;;11.50;9.80;;;;;;6148572;23;20024;-83
2023/10/30 09:14:28;;;;;;;0.10;0.10;;;11.50;99.90;;;;;;6173766;23;20163;-83
2023/10/30 09:16:55;;;;;;;0.30;0.30;;;11.40;1.00;;;;;;6174052;23;20016;-81
2023/10/30 09:19:22;;;;;;;0.22;0.22;;;11.40;99.90;;;;;;6149261;23;20510;-81
2023/10/30 09:21:49;;;;;;;0.22;0.22;;;11.40;99.90;;;;;;6148293;23;20016;-82
2023/10/30 09:24:22;;;;;;;0.20;0.20;;;11.40;99.90;;;;;;6151919;23;20450;-80
2023/10/30 09:26:49;;;;;;;0.20;0.20;;;11.40;1.00;;;;;;6149090;23;20095;-84
2023/10/30 09:29:16;;;;;;;0.52;0.30;;;11.40;99.90;;;;;;6149435;23;20023;-86
2023/10/30 09:31:44;;;;;;;0.38;0.30;;;11.30;1.00;;;;;;6172894;23;20028;-80
2023/10/30 09:34:11;;;;;;;0.28;0.20;;;11.30;37.70;;;;;;6173554;23;20524;-83
2023/10/30 09:36:40;;;;;;;0.10;0.10;;;11.30;99.90;;;;;;6150277;23;20354;-84
2023/10/30 09:39:07;;;;;;;0.10;0.10;;;11.20;99.90;;;;;;6174343;23;20430;-83
2023/10/30 09:41:43;;;;;;;0.22;0.22;;;11.20;99.90;;;;;;6148304;23;20021;-79
2023/10/30 09:44:11;;;;;;;0.20;0.20;;;11.20;99.90;;;;;;6148140;23;20020;-78
2023/10/30 09:46:41;;;;;;;0.47;0.30;;;11.20;99.90;;;;;;6149645;23;20036;-83
2023/10/30 09:49:13;;;;;;;0.32;0.32;;;11.10;45.50;;;;;;6150376;23;20465;-77
2023/10/30 09:51:42;;;;;;;0.83;0.43;;;11.10;1.00;;;;;;6150846;23;20829;-78
2023/10/30 09:54:09;;;;;;;0.22;0.22;;;11.10;99.90;;;;;;6172730;23;20262;-82
2023/10/30 09:56:37;;;;;;;0.40;0.20;;;11.00;99.90;;;;;;6151026;23;20027;-83
2023/10/30 09:59:05;;;;;;;0.32;0.30;;;11.00;1.00;;;;;;6150135;23;20043;-83
2023/10/30 10:01:32;;;;;;;0.20;0.20;;;11.00;99.90;;;;;;6149727;23;20040;-82
2023/10/30 10:03:59;;;;;;;0.70;0.70;;;11.00;5.20;;;;;;6149189;23;20055;-83
2023/10/30 10:06:26;;;;;;;0.20;0.20;;;11.00;99.90;;;;;;6149921;23;20048;-83
2023/10/30 10:08:53;;;;;;;0.20;0.20;;;11.00;99.90;;;;;;6175086;23;20024;-81
2023/10/30 10:11:23;;;;;;;0.28;0.28;;;11.10;99.90;;;;;;6149027;23;20119;-82
2023/10/30 10:13:53;;;;;;;0.30;0.30;;;11.10;99.90;;;;;;6151873;23;20032;-82
2023/10/30 10:16:34;;;;;;;0.40;0.17;;;11.30;99.90;;;;;;6157033;23;20021;-82
2023/10/30 10:19:22;;;;;;;0.20;0.20;;;11.40;99.90;;;;;;6150355;23;20299;-83
2023/10/30 10:21:50;;;;;;;0.20;0.20;;;11.60;99.90;;;;;;6149222;23;20016;-80
2023/10/30 10:24:30;;;;;;;0.20;0.20;;;11.60;99.90;;;;;;6142979;23;20035;-78
2023/10/30 10:27:02;;;;;;;0.77;0.30;;;11.70;99.90;;;;;;6143880;23;20496;-77
2023/10/30 10:29:31;;;;;;;0.20;0.20;;;11.70;99.90;;;;;;6150894;23;20040;-77
2023/10/30 10:31:58;;;;;;;0.30;0.20;;;11.80;23.90;;;;;;6149874;23;20017;-80
2023/10/30 10:34:30;;;;;;;0.20;0.20;;;11.80;1.00;;;;;;6149716;23;20020;-81
2023/10/30 10:36:59;;;;;;;0.32;0.20;;;11.90;99.90;;;;;;6150698;23;20020;-81
2023/10/30 10:39:26;;;;;;;0.40;0.30;;;11.90;95.80;;;;;;6151290;23;20044;-80
2023/10/30 10:41:53;;;;;;;0.40;0.22;;;11.90;99.90;;;;;;6149274;23;20568;-83
2023/10/30 10:44:20;;;;;;;0.43;0.32;;;11.90;1.00;;;;;;6150963;23;20031;-84
2023/10/30 10:46:56;;;;;;;0.50;0.28;;;11.90;61.90;;;;;;6151313;23;20024;-83
2023/10/30 10:49:29;;;;;;;0.20;0.20;;;11.90;99.30;;;;;;6153156;23;20036;-84
2023/10/30 10:51:56;;;;;;;0.20;0.20;;;11.90;83.90;;;;;;6151492;23;20243;-83
2023/10/30 10:54:24;;;;;;;0.20;0.20;;;11.90;1.00;;;;;;6150151;23;20449;-83
2023/10/30 10:56:52;;;;;;;0.10;0.10;;;11.90;99.90;;;;;;6149485;23;20137;-81
2023/10/30 10:59:21;;;;;;;0.15;0.10;;;11.90;1.00;;;;;;6149607;23;20421;-84
2023/10/30 11:01:49;;;;;;;0.10;0.10;;;11.90;99.90;;;;;;6150902;23;20095;-83
2023/10/30 11:04:16;;;;;;;0.50;0.20;;;11.90;99.90;;;;;;6150905;23;20021;-82
2023/10/30 11:06:46;;;;;;;0.20;0.20;;;11.90;1.00;;;;;;6150915;23;20024;-83
2023/10/30 11:09:27;;;;;;;0.20;0.20;;;12.00;99.90;;;;;;6150801;23;20027;-83
2023/10/30 11:12:07;;;;;;;0.28;0.28;;;12.00;99.90;;;;;;6123618;23;20468;-81
2023/10/30 11:15:00;;;;;;;0.38;0.30;;;12.00;19.80;;;;;;6171207;23;20087;-82
2023/10/30 11:17:27;;;;;;;0.67;0.40;;;12.00;1.00;;;;;;6143612;23;20017;-82
2023/10/30 11:20:06;;;;;;;0.57;0.40;;;12.10;99.90;;;;;;6141826;23;20265;-83
2023/10/30 11:22:40;;;;;;;0.28;0.20;;;12.20;99.90;;;;;;6151964;23;20021;-83
2023/10/30 11:25:36;;;;;;;0.20;0.20;;;12.40;99.90;;;;;;6148486;23;20036;-81
2023/10/30 11:28:03;;;;;;;0.20;0.20;;;12.40;30.70;;;;;;6197944;23;20024;-80
2023/10/30 11:30:42;;;;;;;0.38;0.28;;;12.50;99.90;;;;;;6174055;23;20028;-80
2023/10/30 11:33:21;;;;;;;0.30;0.30;;;12.60;99.90;;;;;;6150596;23;20079;-81
2023/10/30 11:36:14;;;;;;;0.10;0.10;;;12.70;99.90;;;;;;6150743;23;20024;-80
2023/10/30 11:38:59;;;;;;;0.20;0.20;;;12.70;99.90;;;;;;6175024;23;20025;-80
2023/10/30 11:41:27;;;;;;;0.55;0.25;;;12.80;99.90;;;;;;6200732;23;20025;-80
2023/10/30 11:44:32;;;;;;;0.38;0.20;;;12.80;1.00;;;;;;6174005;23;20461;-82
2023/10/30 11:46:59;;;;;;;0.20;0.20;;;12.90;1.00;;;;;;6119775;23;20323;-79
2023/10/30 11:49:33;;;;;;;0.22;0.22;;;12.90;72.60;;;;;;6149321;23;20446;-83
2023/10/30 11:52:08;;;;;;;0.20;0.20;;;13.00;37.50;;;;;;6176179;23;20048;-80
2023/10/30 11:54:35;;;;;;;0.20;0.20;;;13.00;99.90;;;;;;6174592;23;20020;-82
2023/10/30 11:57:02;;;;;;;0.30;0.30;;;13.00;99.90;;;;;;6174389;23;20020;-83
2023/10/30 11:59:30;;;;;;;0.20;0.20;;;13.10;48.80;;;;;;6174044;23;20024;-80
2023/10/30 12:01:58;;;;;;;0.10;0.10;;;13.20;99.90;;;;;;6150719;23;20493;-80
2023/10/30 12:04:25;;;;;;;0.10;0.10;;;13.20;1.00;;;;;;6149778;23;20095;-80
2023/10/30 12:06:53;;;;;;;0.30;0.30;;;13.30;1.00;;;;;;6149641;23;20075;-82
2023/10/30 12:09:21;;;;;;;0.10;0.10;;;13.40;1.00;;;;;;6174509;23;20024;-83
2023/10/30 12:11:49;;;;;;;0.50;0.30;;;13.40;1.00;;;;;;6175297;23;20024;-81
2023/10/30 12:14:17;;;;;;;0.20;0.20;;;13.50;99.90;;;;;;6148396;23;20591;-84
2023/10/30 12:16:50;;;;;;;0.10;0.10;;;13.50;1.00;;;;;;6150471;23;20095;-81
2023/10/30 12:19:21;;;;;;;0.25;0.20;;;13.60;99.90;;;;;;6174495;23;20016;-80
2023/10/30 12:21:49;;;;;;;0.57;0.30;;;13.70;1.00;;;;;;6150548;23;20119;-82
2023/10/30 12:24:16;;;;;;;0.15;0.15;;;13.70;99.90;;;;;;6173619;23;20040;-81
2023/10/30 12:26:44;;;;;;;0.22;0.20;;;13.90;1.00;;;;;;6146949;23;20035;-80
2023/10/30 12:29:11;;;;;;;0.28;0.20;;;14.00;99.90;;;;;;6174994;23;20115;-81
2023/10/30 12:31:37;;;;;;;0.20;0.20;;;14.10;99.90;;;;;;6148509;23;20382;-81
2023/10/30 12:34:22;;;;;;;1.02;0.20;;;14.30;99.90;;;;;;6149790;23;20019;-80
2023/10/30 12:36:49;;;;;;;0.20;0.20;;;14.50;1.00;;;;;;6152098;23;20056;-83
2023/10/30 12:39:20;;;;;;;0.30;0.30;;;14.70;1.00;;;;;;6174148;23;20020;-82
2023/10/30 12:41:52;;;;;;;0.20;0.20;;;15.10;99.90;;;;;;6149620;23;20028;-84
2023/10/30 12:44:20;;;;;;;0.15;0.15;;;15.50;99.90;;;;;;6149168;23;20067;-80
2023/10/30 12:46:47;;;;;;;0.30;0.30;;;16.00;99.90;;;;;;6150872;23;20106;-80
2023/10/30 12:49:14;;;;;;;0.55;0.38;;;16.40;99.90;;;;;;6176100;23;20036;-80
2023/10/30 12:51:42;;;;;;;0.60;0.40;;;16.70;99.90;;;;;;6151153;23;20501;-81
2023/10/30 12:54:09;;;;;;;0.65;0.43;;;16.90;94.80;;;;;;6174008;23;20091;-80
2023/10/30 12:56:37;;;;;;;0.40;0.20;;;17.00;52.10;;;;;;6148801;23;20027;-82
2023/10/30 12:59:04;;;;;;;0.30;0.25;;;17.20;67.50;;;;;;6149183;23;20090;-81
2023/10/30 13:01:35;;;;;;;0.35;0.30;;;17.40;43.00;;;;;;6174830;23;20099;-81
2023/10/30 13:04:22;;;;;;;1.73;0.65;;;17.50;29.60;;;;;;6178109;23;20028;-81
2023/10/30 13:06:55;;;;;;;0.57;0.30;;;17.30;19.80;;;;;;6176522;23;20024;-80
2023/10/30 13:09:23;;;;;;;0.20;0.20;;;17.10;16.80;;;;;;6149289;23;20108;-81
2023/10/30 13:11:51;;;;;;;0.57;0.30;;;17.00;28.40;;;;;;6174696;23;20033;-81
2023/10/30 13:14:18;;;;;;;0.20;0.20;;;16.70;23.80;;;;;;6149779;23;20016;-81
2023/10/30 13:16:45;;;;;;;0.43;0.25;;;16.50;38.80;;;;;;6150183;23;20025;-81
2023/10/30 13:19:12;;;;;;;0.10;0.10;;;16.40;33.40;;;;;;6149199;23;20020;-81
2023/10/30 13:21:39;;;;;;;0.73;0.20;;;16.20;52.80;;;;;;6173768;23;20429;-80
2023/10/30 13:24:07;;;;;;;0.30;0.20;;;16.10;72.80;;;;;;6148804;23;20043;-81
2023/10/30 13:26:34;;;;;;;0.30;0.30;;;16.00;91.70;;;;;;6146649;23;20099;-80
2023/10/30 13:29:01;;;;;;;0.50;0.47;;;16.60;99.90;;;;;;6173971;23;20087;-80
2023/10/30 13:31:28;;;;;;;0.30;0.30;;;17.20;67.70;;;;;;6150273;23;20017;-81
2023/10/30 13:33:55;;;;;;;0.88;0.40;;;17.80;46.20;;;;;;6148685;23;20025;-81
2023/10/30 13:36:24;;;;;;;0.50;0.30;;;18.30;28.40;;;;;;6173781;23;20029;-81
2023/10/30 13:38:50;;;;;;;0.43;0.20;;;18.40;15.00;;;;;;6148276;23;20435;-81
2023/10/30 13:41:17;;;;;;;0.80;0.38;;;18.10;1.00;;;;;;6148860;23;20031;-82
2023/10/30 13:43:45;;;;;;;0.80;0.22;;;17.70;1.00;;;;;;6149031;23;20087;-82
2023/10/30 13:46:12;;;;;;;0.38;0.22;;;17.40;2.80;;;;;;6151519;23;20523;-81
2023/10/30 13:48:39;;;;;;;0.32;0.20;;;17.00;1.00;;;;;;6151443;23;20028;-80
2023/10/30 13:51:07;;;;;;;0.32;0.20;;;16.60;1.00;;;;;;6151952;23;20027;-81
2023/10/30 13:53:33;;;;;;;0.25;0.20;;;16.30;2.00;;;;;;6175773;23;20398;-81
2023/10/30 13:56:00;;;;;;;0.20;0.20;;;16.10;16.30;;;;;;6150051;23;20587;-81
2023/10/30 13:58:27;;;;;;;0.68;0.30;;;15.90;27.40;;;;;;6175484;23;20490;-80
2023/10/30 14:00:54;;;;;;;0.47;0.20;;;15.80;59.00;;;;;;6175866;23;20017;-81
2023/10/30 14:03:21;;;;;;;0.38;0.20;;;15.70;78.30;;;;;;6175355;23;20033;-80
2023/10/30 14:05:48;;;;;;;0.50;0.20;;;15.70;76.90;;;;;;6174825;23;20345;-81
2023/10/30 14:08:15;;;;;;;0.10;0.10;;;15.60;71.00;;;;;;6175384;23;20103;-80
2023/10/30 14:10:42;;;;;;;0.25;0.20;;;15.60;93.60;;;;;;6189881;23;20414;-80
2023/10/30 14:13:09;;;;;;;0.50;0.20;;;15.50;98.00;;;;;;6149814;23;20508;-80
2023/10/30 14:15:36;;;;;;;0.38;0.20;;;15.40;99.90;;;;;;6175841;23;20039;-80
2023/10/30 14:18:03;;;;;;;0.20;0.20;;;15.40;99.90;;;;;;6175186;23;20080;-80
2023/10/30 14:20:30;;;;;;;0.30;0.20;;;15.40;99.90;;;;;;6151556;23;20052;-81
2023/10/30 14:22:57;;;;;;;0.45;0.40;;;15.30;99.90;;;;;;6175251;23;20032;-80
2023/10/30 14:25:24;;;;;;;0.40;0.28;;;15.20;99.90;;;;;;6173065;23;20124;-79
2023/10/30 14:27:50;;;;;;;0.63;0.30;;;15.10;99.90;;;;;;6201131;23;20358;-80
2023/10/30 14:30:17;;;;;;;0.22;0.22;;;15.00;99.90;;;;;;6202045;23;20149;-80
2023/10/30 14:32:44;;;;;;;0.30;0.30;;;15.00;99.90;;;;;;6200945;23;20319;-83
2023/10/30 14:35:11;;;;;;;0.22;0.17;;;14.90;99.90;;;;;;6175341;23;20590;-81
2023/10/30 14:37:39;;;;;;;0.20;0.20;;;14.90;99.90;;;;;;6176164;23;20021;-81
2023/10/30 14:40:08;;;;;;;0.22;0.20;;;14.80;99.90;;;;;;6149312;23;20522;-81
2023/10/30 14:42:35;;;;;;;0.73;0.40;;;14.70;99.90;;;;;;6175245;23;20190;-83
2023/10/30 14:45:03;;;;;;;0.57;0.30;;;14.60;81.80;;;;;;6176314;23;20031;-85
2023/10/30 14:47:31;;;;;;;0.32;0.20;;;14.50;70.60;;;;;;6177285;23;20056;-85
2023/10/30 14:49:58;;;;;;;0.40;0.20;;;14.40;68.40;;;;;;6201327;23;20104;-84
2023/10/30 14:52:25;;;;;;;0.57;0.40;;;14.40;70.10;;;;;;6175198;23;20068;-83
2023/10/30 14:54:52;;;;;;;0.52;0.30;;;14.30;50.20;;;;;;6149139;23;20032;-84
2023/10/30 14:57:19;;;;;;;0.25;0.20;;;14.30;48.70;;;;;;6174910;23;20024;-81
2023/10/30 14:59:46;;;;;;;0.40;0.30;;;14.20;44.80;;;;;;6150406;23;20028;-81
2023/10/30 15:02:14;;;;;;;0.20;0.20;;;14.10;55.80;;;;;;6200248;23;20024;-81
2023/10/30 15:04:41;;;;;;;0.20;0.20;;;14.10;57.40;;;;;;6175195;23;20028;-82
2023/10/30 15:07:08;;;;;;;0.25;0.22;;;14.00;76.50;;;;;;6200402;23;20021;-81
2023/10/30 15:09:35;;;;;;;0.22;0.22;;;14.00;84.60;;;;;;6175700;23;20033;-81
2023/10/30 15:12:03;;;;;;;0.20;0.13;;;14.00;92.20;;;;;;6149659;23;20021;-83
2023/10/30 15:14:31;;;;;;;0.90;0.30;;;13.90;48.20;;;;;;6175961;23;20434;-82
2023/10/30 15:16:58;;;;;;;0.30;0.30;;;13.80;82.60;;;;;;6200973;23;20021;-82
2023/10/30 15:19:25;;;;;;;0.30;0.28;;;13.80;99.90;;;;;;6175812;23;20436;-82
2023/10/30 15:21:52;;;;;;;0.30;0.20;;;13.80;99.90;;;;;;6175644;23;20095;-84
2023/10/30 15:24:19;;;;;;;0.22;0.20;;;13.80;99.90;;;;;;6150793;23;20341;-84
2023/10/30 15:26:46;;;;;;;0.20;0.17;;;13.90;99.90;;;;;;6148050;23;20401;-82
2023/10/30 15:29:14;;;;;;;0.43;0.20;;;13.90;99.90;;;;;;6149875;23;20091;-82
2023/10/30 15:31:42;;;;;;;0.17;0.17;;;13.90;99.90;;;;;;6174514;23;20071;-80
2023/10/30 15:34:10;;;;;;;0.17;0.17;;;13.90;99.90;;;;;;6199074;23;20108;-80
2023/10/30 15:36:37;;;;;;;0.30;0.20;;;13.80;99.90;;;;;;6175469;23;20017;-78
2023/10/30 15:39:04;;;;;;;0.65;0.38;;;13.80;99.90;;;;;;6175842;23;20020;-83
2023/10/30 15:41:32;;;;;;;0.20;0.20;;;13.80;99.90;;;;;;6174352;23;20024;-83
2023/10/30 15:44:00;;;;;;;0.38;0.20;;;13.70;99.90;;;;;;6174242;23;20021;-82
2023/10/30 15:46:27;;;;;;;0.35;0.30;;;13.70;99.90;;;;;;6150633;23;20028;-82
2023/10/30 15:48:58;;;;;;;0.50;0.30;;;13.60;99.90;;;;;;6152003;23;20461;-83
2023/10/30 15:51:26;;;;;;;0.20;0.20;;;13.40;99.90;;;;;;6151204;23;20030;-82
2023/10/30 15:53:53;;;;;;;0.20;0.20;;;13.40;99.90;;;;;;6151436;23;20017;-82
2023/10/30 15:56:20;;;;;;;0.20;0.20;;;13.30;99.90;;;;;;6174762;23;20047;-84
2023/10/30 15:58:52;;;;;;;0.20;0.20;;;13.20;99.90;;;;;;6152804;23;20078;-79
2023/10/30 16:01:19;;;;;;;0.20;0.20;;;13.20;99.90;;;;;;6178137;23;20031;-79
2023/10/30 16:03:46;;;;;;;0.10;0.10;;;13.10;99.90;;;;;;6179654;23;20067;-79
2023/10/30 16:06:13;;;;;;;0.20;0.20;;;13.00;99.90;;;;;;6179941;23;20028;-80
2023/10/30 16:08:40;;;;;;;0.20;0.20;;;13.00;99.90;;;;;;6206383;23;20370;-79
2023/10/30 16:11:10;;;;;;;0.30;0.30;;;12.90;99.90;;;;;;6158143;23;20537;-79
2023/10/30 16:13:56;;;;;;;0.20;0.20;;;12.80;1.00;;;;;;6183496;23;20461;-79
2023/10/30 16:16:23;;;;;;;0.20;0.20;;;12.80;7.20;;;;;;6182671;23;20311;-78
2023/10/30 16:18:53;;;;;;;0.20;0.20;;;12.70;99.90;;;;;;6206474;23;20104;-79
2023/10/30 16:21:26;;;;;;;0.55;0.32;;;12.70;99.90;;;;;;6159541;23;20020;-79
2023/10/30 16:23:54;;;;;;;0.20;0.20;;;12.60;99.90;;;;;;6205022;23;20243;-80
2023/10/30 16:26:20;;;;;;;0.20;0.20;;;12.50;99.90;;;;;;6151941;23;20140;-80
2023/10/30 16:28:47;;;;;;;0.25;0.20;;;12.50;89.60;;;;;;6177591;23;20020;-81